createdAt,value
2019-01-25T00:00:15.871Z,23.15
2019-01-25T00:01:15.860Z,23.08
2019-01-25T00:02:15.849Z,23.17
2019-01-25T00:03:15.837Z,23.19
2019-01-25T00:04:15.834Z,23.12
2019-01-25T00:05:15.817Z,23.08
2019-01-25T00:06:15.806Z,23.12
2019-01-25T00:07:15.796Z,23.11
2019-01-25T00:08:15.783Z,23.15
2019-01-25T00:09:15.780Z,23.05
2019-01-25T00:10:15.761Z,23.08
2019-01-25T00:11:15.748Z,23.05
2019-01-25T00:12:15.739Z,23.04
2019-01-25T00:13:15.728Z,23.17
2019-01-25T00:14:15.728Z,23.12
2019-01-25T00:15:15.705Z,23.09
2019-01-25T00:16:15.699Z,23.08
2019-01-25T00:17:15.756Z,23.14
2019-01-25T00:18:15.670Z,23.14
2019-01-25T00:19:15.661Z,23.04
2019-01-25T00:20:15.658Z,23.05
2019-01-25T00:21:15.638Z,23.07
2019-01-25T00:22:15.630Z,23.07
2019-01-25T00:23:15.615Z,23.08
2019-01-25T00:24:15.605Z,23.11
2019-01-25T00:25:15.603Z,23.07
2019-01-25T00:26:15.583Z,23.05
2019-01-25T00:27:15.576Z,23.01
2019-01-25T00:28:15.560Z,23.05
2019-01-25T00:29:15.551Z,23.05
2019-01-25T00:30:15.548Z,23.09
2019-01-25T00:31:15.529Z,23.09
2019-01-25T00:32:15.518Z,23.12
2019-01-25T00:33:15.506Z,23.07
2019-01-25T00:34:15.495Z,23.07
2019-01-25T00:35:15.491Z,23.01
2019-01-25T00:36:15.508Z,23.14
2019-01-25T00:37:15.461Z,23.07
2019-01-25T00:38:15.455Z,22.99
2019-01-25T00:39:15.442Z,23.01
2019-01-25T00:40:15.443Z,22.97
2019-01-25T00:41:15.419Z,23.04
2019-01-25T00:42:15.407Z,23.01
2019-01-25T00:43:15.395Z,22.93
2019-01-25T00:44:15.386Z,22.93
2019-01-25T00:45:15.375Z,23.05
2019-01-25T00:46:15.370Z,23.05
2019-01-25T00:47:15.351Z,23.05
2019-01-25T00:48:15.339Z,22.99
2019-01-25T00:49:15.330Z,22.94
2019-01-25T00:50:15.320Z,23.01
2019-01-25T00:51:15.318Z,22.86
2019-01-25T00:52:15.297Z,22.93
2019-01-25T00:53:15.286Z,22.83
2019-01-25T00:54:15.273Z,22.87
2019-01-25T00:55:15.262Z,22.92
2019-01-25T00:56:15.262Z,22.93
2019-01-25T00:57:15.240Z,22.93
2019-01-25T00:58:15.229Z,22.94
2019-01-25T00:59:15.218Z,22.97
2019-01-25T01:00:15.208Z,22.97
2019-01-25T01:01:15.206Z,22.89
2019-01-25T01:02:15.187Z,23.01
2019-01-25T01:03:15.174Z,22.94
2019-01-25T01:04:15.164Z,22.99
2019-01-25T01:05:15.151Z,23.04
2019-01-25T01:06:15.154Z,23.02
2019-01-25T01:07:15.137Z,22.97
2019-01-25T01:08:15.119Z,22.93
2019-01-25T01:09:15.107Z,22.94
2019-01-25T01:10:15.099Z,23.02
2019-01-25T01:11:15.086Z,22.94
2019-01-25T01:12:15.082Z,22.96
2019-01-25T01:13:15.068Z,22.92
2019-01-25T01:14:15.057Z,22.87
2019-01-25T01:15:15.042Z,22.94
2019-01-25T01:16:15.030Z,22.90
2019-01-25T01:17:15.028Z,22.94
2019-01-25T01:18:15.008Z,22.93
2019-01-25T01:19:14.998Z,22.96
2019-01-25T01:20:14.989Z,22.97
2019-01-25T01:21:14.975Z,22.84
2019-01-25T01:22:14.973Z,22.86
2019-01-25T01:23:14.953Z,22.83
2019-01-25T01:24:14.942Z,22.93
2019-01-25T01:25:14.932Z,22.92
2019-01-25T01:26:14.922Z,22.97
2019-01-25T01:27:14.921Z,22.93
2019-01-25T01:28:14.908Z,22.86
2019-01-25T01:29:14.888Z,22.86
2019-01-25T01:30:14.876Z,22.90
2019-01-25T01:31:14.865Z,22.90
2019-01-25T01:32:14.857Z,22.82
2019-01-25T01:33:14.851Z,22.80
2019-01-25T01:34:14.831Z,22.83
2019-01-25T01:35:14.821Z,22.89
2019-01-25T01:36:14.809Z,22.78
2019-01-25T01:37:14.798Z,22.84
2019-01-25T01:38:14.798Z,22.87
2019-01-25T01:39:14.776Z,22.86
2019-01-25T01:40:21.508Z,22.82
2019-01-25T01:41:15.754Z,22.78
2019-01-25T01:42:14.743Z,22.82
2019-01-25T01:43:14.743Z,22.80
2019-01-25T01:44:14.722Z,22.78
2019-01-25T01:45:14.710Z,22.82
2019-01-25T01:46:14.699Z,22.75
2019-01-25T01:47:14.686Z,22.84
2019-01-25T01:48:14.688Z,22.80
2019-01-25T01:49:14.665Z,22.84
2019-01-25T01:50:14.653Z,22.86
2019-01-25T01:51:14.642Z,22.83
2019-01-25T01:52:14.631Z,22.86
2019-01-25T01:53:14.636Z,22.80
2019-01-25T01:54:14.610Z,22.80
2019-01-25T01:55:14.599Z,22.82
2019-01-25T01:56:14.589Z,22.80
2019-01-25T01:57:14.579Z,22.90
2019-01-25T01:58:14.565Z,22.77
2019-01-25T01:59:14.562Z,22.82
2019-01-25T02:00:14.545Z,22.84
2019-01-25T02:01:14.534Z,22.80
2019-01-25T02:02:14.520Z,22.84
2019-01-25T02:03:14.511Z,22.74
2019-01-25T02:04:14.510Z,22.72
2019-01-25T02:05:14.489Z,22.78
2019-01-25T02:06:14.477Z,22.82
2019-01-25T02:07:14.465Z,22.74
2019-01-25T02:08:14.455Z,22.80
2019-01-25T02:09:14.456Z,22.84
2019-01-25T02:10:14.433Z,22.75
2019-01-25T02:11:14.422Z,22.67
2019-01-25T02:12:14.414Z,22.69
2019-01-25T02:13:14.399Z,22.78
2019-01-25T02:14:14.390Z,22.82
2019-01-25T02:15:14.387Z,22.82
2019-01-25T02:16:14.365Z,22.75
2019-01-25T02:17:14.360Z,22.78
2019-01-25T02:18:14.346Z,22.80
2019-01-25T02:19:14.332Z,22.83
2019-01-25T02:20:14.340Z,22.75
2019-01-25T02:21:14.312Z,22.77
2019-01-25T02:22:14.300Z,22.68
2019-01-25T02:23:14.288Z,22.68
2019-01-25T02:24:14.279Z,22.74
2019-01-25T02:25:14.275Z,22.72
2019-01-25T02:26:14.257Z,22.74
2019-01-25T02:27:14.244Z,22.75
2019-01-25T02:28:14.233Z,22.72
2019-01-25T02:29:14.223Z,22.77
2019-01-25T02:30:14.221Z,22.78
2019-01-25T02:31:14.201Z,22.71
2019-01-25T02:32:14.188Z,22.75
2019-01-25T02:33:14.177Z,22.74
2019-01-25T02:34:14.166Z,22.77
2019-01-25T02:35:14.172Z,22.75
2019-01-25T02:36:14.146Z,22.78
2019-01-25T02:37:14.141Z,22.74
2019-01-25T02:38:14.131Z,22.77
2019-01-25T02:39:14.112Z,22.74
2019-01-25T02:40:14.102Z,22.77
2019-01-25T02:41:14.100Z,22.78
2019-01-25T02:42:14.079Z,22.69
2019-01-25T02:43:14.068Z,22.71
2019-01-25T02:44:14.063Z,22.75
2019-01-25T02:45:14.045Z,22.69
2019-01-25T02:46:14.042Z,22.80
2019-01-25T02:47:14.024Z,22.74
2019-01-25T02:48:14.012Z,22.74
2019-01-25T02:49:14.004Z,22.74
2019-01-25T02:50:13.990Z,22.72
2019-01-25T02:51:13.991Z,22.77
2019-01-25T02:52:13.970Z,22.77
2019-01-25T02:53:13.956Z,22.77
2019-01-25T02:54:13.948Z,22.78
2019-01-25T02:55:13.936Z,22.74
2019-01-25T02:56:13.932Z,22.74
2019-01-25T02:57:13.913Z,22.67
2019-01-25T02:58:13.901Z,22.71
2019-01-25T02:59:13.891Z,22.69
2019-01-25T03:00:13.880Z,22.71
2019-01-25T03:01:13.886Z,22.64
2019-01-25T03:02:13.859Z,22.64
2019-01-25T03:03:13.848Z,22.62
2019-01-25T03:04:13.845Z,22.69
2019-01-25T03:05:13.825Z,22.57
2019-01-25T03:06:13.812Z,22.64
2019-01-25T03:07:13.812Z,22.65
2019-01-25T03:08:13.792Z,22.60
2019-01-25T03:09:13.782Z,22.67
2019-01-25T03:10:13.768Z,22.60
2019-01-25T03:11:13.757Z,22.56
2019-01-25T03:12:13.759Z,22.65
2019-01-25T03:13:13.738Z,22.67
2019-01-25T03:14:13.724Z,22.69
2019-01-25T03:15:13.715Z,22.65
2019-01-25T03:16:13.705Z,22.59
2019-01-25T03:17:13.691Z,22.64
2019-01-25T03:18:13.690Z,22.68
2019-01-25T03:19:13.669Z,22.75
2019-01-25T03:20:13.659Z,22.69
2019-01-25T03:21:13.646Z,22.71
2019-01-25T03:22:13.636Z,22.69
2019-01-25T03:23:13.636Z,22.71
2019-01-25T03:24:13.613Z,22.65
2019-01-25T03:25:13.601Z,22.68
2019-01-25T03:26:13.590Z,22.65
2019-01-25T03:27:13.581Z,22.71
2019-01-25T03:28:13.578Z,22.78
2019-01-25T03:29:13.559Z,22.67
2019-01-25T03:30:13.550Z,22.72
2019-01-25T03:31:13.537Z,22.57
2019-01-25T03:32:13.526Z,22.72
2019-01-25T03:33:13.525Z,22.65
2019-01-25T03:34:13.502Z,22.69
2019-01-25T03:35:13.491Z,22.60
2019-01-25T03:36:13.481Z,22.62
2019-01-25T03:37:13.470Z,22.62
2019-01-25T03:38:13.467Z,22.68
2019-01-25T03:39:13.454Z,22.67
2019-01-25T03:40:13.439Z,22.67
2019-01-25T03:41:13.429Z,22.72
2019-01-25T03:42:13.413Z,22.72
2019-01-25T03:43:13.413Z,22.57
2019-01-25T03:44:13.392Z,22.65
2019-01-25T03:45:13.381Z,22.60
2019-01-25T03:46:13.371Z,22.64
2019-01-25T03:47:13.359Z,22.68
2019-01-25T03:48:13.357Z,22.52
2019-01-25T03:49:13.336Z,22.69
2019-01-25T03:50:13.328Z,22.59
2019-01-25T03:51:13.316Z,22.56
2019-01-25T03:52:13.303Z,22.67
2019-01-25T03:53:13.306Z,22.72
2019-01-25T03:54:13.280Z,22.62
2019-01-25T03:55:13.272Z,22.60
2019-01-25T03:56:13.260Z,22.62
2019-01-25T03:57:13.251Z,22.53
2019-01-25T03:58:13.237Z,22.59
2019-01-25T03:59:13.235Z,22.64
2019-01-25T04:00:13.227Z,22.56
2019-01-25T04:01:13.204Z,22.56
2019-01-25T04:02:13.194Z,22.59
2019-01-25T04:03:13.182Z,22.60
2019-01-25T04:04:13.184Z,22.60
2019-01-25T04:05:13.162Z,22.54
2019-01-25T04:06:13.148Z,22.69
2019-01-25T04:07:13.137Z,22.65
2019-01-25T04:08:13.132Z,22.62
2019-01-25T04:09:13.119Z,22.65
2019-01-25T04:10:13.114Z,22.57
2019-01-25T04:11:13.096Z,22.62
2019-01-25T04:12:13.084Z,22.65
2019-01-25T04:13:13.071Z,22.69
2019-01-25T04:14:13.062Z,22.64
2019-01-25T04:15:13.059Z,22.57
2019-01-25T04:16:13.041Z,22.53
2019-01-25T04:17:13.032Z,22.54
2019-01-25T04:18:13.020Z,22.60
2019-01-25T04:19:13.018Z,22.53
2019-01-25T04:20:13.014Z,22.50
2019-01-25T04:21:12.983Z,22.60
2019-01-25T04:22:12.972Z,22.72
2019-01-25T04:23:12.964Z,22.67
2019-01-25T04:24:12.951Z,22.65
2019-01-25T04:25:12.951Z,22.62
2019-01-25T04:26:12.937Z,22.56
2019-01-25T04:27:12.917Z,22.62
2019-01-25T04:28:12.909Z,22.60
2019-01-25T04:29:12.895Z,22.71
2019-01-25T04:30:12.882Z,22.68
2019-01-25T04:31:12.880Z,22.64
2019-01-25T04:32:12.862Z,22.59
2019-01-25T04:33:12.849Z,22.52
2019-01-25T04:34:12.839Z,22.53
2019-01-25T04:35:12.830Z,22.52
2019-01-25T04:36:12.826Z,22.54
2019-01-25T04:37:12.805Z,22.59
2019-01-25T04:38:12.794Z,22.50
2019-01-25T04:39:12.782Z,22.57
2019-01-25T04:40:12.774Z,22.67
2019-01-25T04:41:12.771Z,22.60
2019-01-25T04:42:12.752Z,22.65
2019-01-25T04:43:12.739Z,22.57
2019-01-25T04:44:12.728Z,22.54
2019-01-25T04:45:12.716Z,22.56
2019-01-25T04:46:12.714Z,22.52
2019-01-25T04:47:12.698Z,22.57
2019-01-25T04:48:12.682Z,22.57
2019-01-25T04:49:12.672Z,22.57
2019-01-25T04:50:12.664Z,22.52
2019-01-25T04:51:12.660Z,22.59
2019-01-25T04:52:12.643Z,22.57
2019-01-25T04:53:12.628Z,22.67
2019-01-25T04:54:12.617Z,22.52
2019-01-25T04:55:12.607Z,22.50
2019-01-25T04:56:12.603Z,22.50
2019-01-25T04:57:12.583Z,22.52
2019-01-25T04:58:12.578Z,22.56
2019-01-25T04:59:12.564Z,22.60
2019-01-25T05:00:12.553Z,22.34
2019-01-25T05:01:12.549Z,22.41
2019-01-25T05:02:12.532Z,22.31
2019-01-25T05:03:12.518Z,22.39
2019-01-25T05:04:12.510Z,22.34
2019-01-25T05:05:12.497Z,22.47
2019-01-25T05:06:12.495Z,22.56
2019-01-25T05:07:12.474Z,22.54
2019-01-25T05:08:12.467Z,22.41
2019-01-25T05:09:12.451Z,22.56
2019-01-25T05:10:12.443Z,22.47
2019-01-25T05:11:19.706Z,22.52
2019-01-25T05:12:13.420Z,22.46
2019-01-25T05:13:12.414Z,22.39
2019-01-25T05:14:12.401Z,22.43
2019-01-25T05:15:12.386Z,22.39
2019-01-25T05:16:12.389Z,22.49
2019-01-25T05:17:12.366Z,22.44
2019-01-25T05:18:12.354Z,22.41
2019-01-25T05:19:12.342Z,22.44
2019-01-25T05:20:12.335Z,22.50
2019-01-25T05:21:12.328Z,22.53
2019-01-25T05:22:12.320Z,22.50
2019-01-25T05:23:12.296Z,22.53
2019-01-25T05:24:12.287Z,22.46
2019-01-25T05:25:12.275Z,22.49
2019-01-25T05:26:12.264Z,22.38
2019-01-25T05:27:12.263Z,22.52
2019-01-25T05:28:12.275Z,22.50
2019-01-25T05:29:12.236Z,22.49
2019-01-25T05:30:12.220Z,22.41
2019-01-25T05:31:12.208Z,22.46
2019-01-25T05:32:12.234Z,22.50
2019-01-25T05:33:12.186Z,22.46
2019-01-25T05:34:12.176Z,22.41
2019-01-25T05:35:12.166Z,22.41
2019-01-25T05:36:12.154Z,22.43
2019-01-25T05:37:12.154Z,22.34
2019-01-25T05:38:12.131Z,22.32
2019-01-25T05:39:12.121Z,22.41
2019-01-25T05:40:12.107Z,22.32
2019-01-25T05:41:12.098Z,22.28
2019-01-25T05:42:12.086Z,22.32
2019-01-25T05:43:12.083Z,22.32
2019-01-25T05:44:12.063Z,22.31
2019-01-25T05:45:12.053Z,22.32
2019-01-25T05:46:12.040Z,22.37
2019-01-25T05:47:12.032Z,22.37
2019-01-25T05:48:12.029Z,22.38
2019-01-25T05:49:12.010Z,22.37
2019-01-25T05:50:11.996Z,22.37
2019-01-25T05:51:11.986Z,22.41
2019-01-25T05:52:11.976Z,22.39
2019-01-25T05:53:11.972Z,22.35
2019-01-25T05:54:11.955Z,22.35
2019-01-25T05:55:11.943Z,22.37
2019-01-25T05:56:11.933Z,22.34
2019-01-25T05:57:11.920Z,22.39
2019-01-25T05:58:11.928Z,22.38
2019-01-25T05:59:11.902Z,22.35
2019-01-25T06:00:11.887Z,22.34
2019-01-25T06:01:11.876Z,22.34
2019-01-25T06:02:11.865Z,22.32
2019-01-25T06:03:11.854Z,22.32
2019-01-25T06:04:11.855Z,22.41
2019-01-25T06:05:11.831Z,22.31
2019-01-25T06:06:11.820Z,22.43
2019-01-25T06:07:11.810Z,22.34
2019-01-25T06:08:11.798Z,22.41
2019-01-25T06:09:11.795Z,22.38
2019-01-25T06:10:11.776Z,22.27
2019-01-25T06:11:11.766Z,22.41
2019-01-25T06:12:11.755Z,22.37
2019-01-25T06:13:11.743Z,22.37
2019-01-25T06:14:11.740Z,22.34
2019-01-25T06:15:11.721Z,22.31
2019-01-25T06:16:11.714Z,22.41
2019-01-25T06:17:11.699Z,22.34
2019-01-25T06:18:11.686Z,22.35
2019-01-25T06:19:11.687Z,22.41
2019-01-25T06:20:11.667Z,22.39
2019-01-25T06:21:11.654Z,22.41
2019-01-25T06:22:11.644Z,22.34
2019-01-25T06:23:11.633Z,22.39
2019-01-25T06:24:11.629Z,22.32
2019-01-25T06:25:11.614Z,22.31
2019-01-25T06:26:11.598Z,22.28
2019-01-25T06:27:11.588Z,22.27
2019-01-25T06:28:11.576Z,22.32
2019-01-25T06:29:11.566Z,22.35
2019-01-25T06:30:11.568Z,22.25
2019-01-25T06:31:11.541Z,22.32
2019-01-25T06:32:11.530Z,22.34
2019-01-25T06:33:11.520Z,22.32
2019-01-25T06:34:11.510Z,22.31
2019-01-25T06:35:11.503Z,22.29
2019-01-25T06:36:11.498Z,22.29
2019-01-25T06:37:11.479Z,22.32
2019-01-25T06:38:11.465Z,22.32
2019-01-25T06:39:11.457Z,22.29
2019-01-25T06:40:11.443Z,22.25
2019-01-25T06:41:11.444Z,22.23
2019-01-25T06:42:11.424Z,22.25
2019-01-25T06:43:11.417Z,22.31
2019-01-25T06:44:11.399Z,22.28
2019-01-25T06:45:11.388Z,22.28
2019-01-25T06:46:11.385Z,22.28
2019-01-25T06:47:11.366Z,22.27
2019-01-25T06:48:11.355Z,22.31
2019-01-25T06:49:11.344Z,22.29
2019-01-25T06:50:11.332Z,22.27
2019-01-25T06:51:11.335Z,22.17
2019-01-25T06:52:11.309Z,22.16
2019-01-25T06:53:11.299Z,22.14
2019-01-25T06:54:11.288Z,22.23
2019-01-25T06:55:11.278Z,22.25
2019-01-25T06:56:11.266Z,22.20
2019-01-25T06:57:11.265Z,22.23
2019-01-25T06:58:11.243Z,22.17
2019-01-25T06:59:11.234Z,22.14
2019-01-25T07:00:11.223Z,22.28
2019-01-25T07:01:11.211Z,22.23
2019-01-25T07:02:11.207Z,22.19
2019-01-25T07:03:11.187Z,22.16
2019-01-25T07:04:11.178Z,22.14
2019-01-25T07:05:11.165Z,22.20
2019-01-25T07:06:11.154Z,22.19
2019-01-25T07:07:11.155Z,22.20
2019-01-25T07:08:11.134Z,22.29
2019-01-25T07:09:11.122Z,22.19
2019-01-25T07:10:11.110Z,22.17
2019-01-25T07:11:11.102Z,22.22
2019-01-25T07:12:11.098Z,22.20
2019-01-25T07:13:11.076Z,22.13
2019-01-25T07:14:11.067Z,22.19
2019-01-25T07:15:11.057Z,22.20
2019-01-25T07:16:11.043Z,22.20
2019-01-25T07:17:11.045Z,22.19
2019-01-25T07:18:11.023Z,22.14
2019-01-25T07:19:11.012Z,22.14
2019-01-25T07:20:10.999Z,22.20
2019-01-25T07:21:10.988Z,22.22
2019-01-25T07:22:10.982Z,22.13
2019-01-25T07:23:10.976Z,22.14
2019-01-25T07:24:10.954Z,22.20
2019-01-25T07:25:10.944Z,22.19
2019-01-25T07:26:10.933Z,22.23
2019-01-25T07:27:10.923Z,22.16
2019-01-25T07:28:10.920Z,22.23
2019-01-25T07:29:10.914Z,22.17
2019-01-25T07:30:10.889Z,22.13
2019-01-25T07:31:10.897Z,22.16
2019-01-25T07:32:10.974Z,22.12
2019-01-25T07:33:10.887Z,22.13
2019-01-25T07:34:10.856Z,22.10
2019-01-25T07:35:10.861Z,22.13
2019-01-25T07:36:10.825Z,22.13
2019-01-25T07:37:10.814Z,22.10
2019-01-25T07:38:10.873Z,22.22
2019-01-25T07:39:10.789Z,22.14
2019-01-25T07:40:10.779Z,22.13
2019-01-25T07:41:10.797Z,22.07
2019-01-25T07:42:10.757Z,22.09
2019-01-25T07:43:10.761Z,22.07
2019-01-25T07:44:10.734Z,22.13
2019-01-25T07:45:10.722Z,22.14
2019-01-25T07:46:10.724Z,22.10
2019-01-25T07:47:10.701Z,22.10
2019-01-25T07:48:10.706Z,22.12
2019-01-25T07:49:10.698Z,22.10
2019-01-25T07:50:10.688Z,22.09
2019-01-25T07:51:10.664Z,22.07
2019-01-25T07:52:10.645Z,22.02
2019-01-25T07:53:10.637Z,22.13
2019-01-25T07:54:10.641Z,22.04
2019-01-25T07:55:10.849Z,22.14
2019-01-25T07:56:10.608Z,22.13
2019-01-25T07:57:10.589Z,22.09
2019-01-25T07:58:10.579Z,22.12
2019-01-25T07:59:10.589Z,22.10
2019-01-25T08:00:10.557Z,22.06
2019-01-25T08:01:10.553Z,22.09
2019-01-25T08:02:10.536Z,22.09
2019-01-25T08:03:10.533Z,22.10
2019-01-25T08:04:10.512Z,22.10
2019-01-25T08:05:10.770Z,22.07
2019-01-25T08:06:10.498Z,22.09
2019-01-25T08:07:10.573Z,22.09
2019-01-25T08:08:10.470Z,22.06
2019-01-25T08:09:10.466Z,22.07
2019-01-25T08:10:10.492Z,22.09
2019-01-25T08:11:10.439Z,22.12
2019-01-25T08:12:10.426Z,22.13
2019-01-25T08:13:10.421Z,22.07
2019-01-25T08:14:10.404Z,22.10
2019-01-25T08:15:10.408Z,22.10
2019-01-25T08:16:10.389Z,22.12
2019-01-25T08:17:10.368Z,22.04
2019-01-25T08:18:10.357Z,22.04
2019-01-25T08:19:10.422Z,22.06
2019-01-25T08:20:10.347Z,22.04
2019-01-25T08:21:10.333Z,22.02
2019-01-25T08:22:10.322Z,22.12
2019-01-25T08:23:10.303Z,22.07
2019-01-25T08:24:10.293Z,22.12
2019-01-25T08:25:10.336Z,22.12
2019-01-25T08:26:10.285Z,21.99
2019-01-25T08:27:10.261Z,22.07
2019-01-25T08:28:10.248Z,22.06
2019-01-25T08:29:10.251Z,22.04
2019-01-25T08:30:10.262Z,22.06
2019-01-25T08:31:10.214Z,22.09
2019-01-25T08:32:10.228Z,22.12
2019-01-25T08:33:10.228Z,22.09
2019-01-25T08:34:10.221Z,22.04
2019-01-25T08:35:10.197Z,22.06
2019-01-25T08:36:10.157Z,22.10
2019-01-25T08:37:10.187Z,22.06
2019-01-25T08:38:10.136Z,22.07
2019-01-25T08:39:10.161Z,22.12
2019-01-25T08:40:10.114Z,22.07
2019-01-25T08:41:10.110Z,22.12
2019-01-25T08:42:15.466Z,22.12
2019-01-25T08:43:11.079Z,22.14
2019-01-25T08:44:10.090Z,22.10
2019-01-25T08:45:10.068Z,22.12
2019-01-25T08:46:10.055Z,22.10
2019-01-25T08:47:10.035Z,22.09
2019-01-25T08:48:10.022Z,22.09
2019-01-25T08:49:10.013Z,22.09
2019-01-25T08:50:10.098Z,22.12
2019-01-25T08:51:10.335Z,22.09
2019-01-25T08:52:10.812Z,22.06
2019-01-25T08:53:09.977Z,22.06
2019-01-25T08:54:09.957Z,22.02
2019-01-25T08:55:09.945Z,22.16
2019-01-25T08:56:09.935Z,22.10
2019-01-25T08:57:09.935Z,22.13
2019-01-25T08:58:09.912Z,22.13
2019-01-25T08:59:10.017Z,22.06
2019-01-25T09:00:09.889Z,22.09
2019-01-25T09:01:09.880Z,22.10
2019-01-25T09:02:09.877Z,22.01
2019-01-25T09:03:09.858Z,22.13
2019-01-25T09:04:09.845Z,22.09
2019-01-25T09:05:10.162Z,22.01
2019-01-25T09:06:09.821Z,22.10
2019-01-25T09:07:09.823Z,22.10
2019-01-25T09:08:09.799Z,22.12
2019-01-25T09:09:09.789Z,22.07
2019-01-25T09:10:09.778Z,22.12
2019-01-25T09:11:09.765Z,22.16
2019-01-25T09:12:09.757Z,22.02
2019-01-25T09:13:09.754Z,22.10
2019-01-25T09:14:09.739Z,22.13
2019-01-25T09:15:09.724Z,22.09
2019-01-25T09:16:09.709Z,22.13
2019-01-25T09:17:09.700Z,22.10
2019-01-25T09:18:09.697Z,22.06
2019-01-25T09:19:09.679Z,22.09
2019-01-25T09:20:14.412Z,22.12
2019-01-25T09:21:10.652Z,22.10
2019-01-25T09:22:09.641Z,21.95
2019-01-25T09:23:09.640Z,22.16
2019-01-25T09:24:09.621Z,22.01
2019-01-25T09:25:09.607Z,22.02
2019-01-25T09:26:09.596Z,22.12
2019-01-25T09:27:09.584Z,21.99
2019-01-25T09:28:09.583Z,21.94
2019-01-25T09:29:09.562Z,22.09
2019-01-25T09:30:09.551Z,22.14
2019-01-25T09:31:09.539Z,22.16
2019-01-25T09:32:09.528Z,22.07
2019-01-25T09:33:09.525Z,22.04
2019-01-25T09:34:09.505Z,22.06
2019-01-25T09:35:09.494Z,22.06
2019-01-25T09:36:09.486Z,22.02
2019-01-25T09:37:09.471Z,22.09
2019-01-25T09:38:09.475Z,22.10
2019-01-25T09:39:09.448Z,22.06
2019-01-25T09:40:09.437Z,22.12
2019-01-25T09:41:09.429Z,22.07
2019-01-25T09:42:09.417Z,22.14
2019-01-25T09:43:09.404Z,22.13
2019-01-25T09:44:09.401Z,22.09
2019-01-25T09:45:09.381Z,22.07
2019-01-25T09:46:09.371Z,22.10
2019-01-25T09:47:09.358Z,22.09
2019-01-25T09:48:09.349Z,21.99
2019-01-25T09:49:09.344Z,21.97
2019-01-25T09:50:09.325Z,22.04
2019-01-25T09:51:09.316Z,22.02
2019-01-25T09:52:09.303Z,22.04
2019-01-25T09:53:09.291Z,21.94
2019-01-25T09:54:09.290Z,21.98
2019-01-25T09:55:09.269Z,21.98
2019-01-25T09:56:09.259Z,21.91
2019-01-25T09:57:09.248Z,21.97
2019-01-25T09:58:09.235Z,21.99
2019-01-25T09:59:09.239Z,22.01
2019-01-25T10:00:09.212Z,21.98
2019-01-25T10:01:09.203Z,21.91
2019-01-25T10:02:09.192Z,21.99
2019-01-25T10:03:09.181Z,21.99
2019-01-25T10:04:09.167Z,21.99
2019-01-25T10:05:09.166Z,21.92
2019-01-25T10:06:09.150Z,21.95
2019-01-25T10:07:09.136Z,21.98
2019-01-25T10:08:09.124Z,22.01
2019-01-25T10:09:09.114Z,22.01
2019-01-25T10:10:09.111Z,22.04
2019-01-25T10:11:09.095Z,21.95
2019-01-25T10:12:09.081Z,22.04
2019-01-25T10:13:09.067Z,22.02
2019-01-25T10:14:09.061Z,21.95
2019-01-25T10:15:09.055Z,21.91
2019-01-25T10:16:09.034Z,21.99
2019-01-25T10:17:09.024Z,21.95
2019-01-25T10:18:09.012Z,21.99
2019-01-25T10:19:09.001Z,22.04
2019-01-25T10:20:09.007Z,21.97
2019-01-25T10:21:08.981Z,21.99
2019-01-25T10:22:08.968Z,21.97
2019-01-25T10:23:08.957Z,22.01
2019-01-25T10:24:08.944Z,22.01
2019-01-25T10:25:08.934Z,21.99
2019-01-25T10:26:08.984Z,21.95
2019-01-25T10:27:08.914Z,21.94
2019-01-25T10:28:08.900Z,22.04
2019-01-25T10:29:08.889Z,22.06
2019-01-25T10:30:08.878Z,22.02
2019-01-25T10:31:08.876Z,22.02
2019-01-25T10:32:08.854Z,21.98
2019-01-25T10:33:08.842Z,21.98
2019-01-25T10:34:08.834Z,22.01
2019-01-25T10:35:08.820Z,21.94
2019-01-25T10:36:08.818Z,22.01
2019-01-25T10:37:08.798Z,22.02
2019-01-25T10:38:08.789Z,21.97
2019-01-25T10:39:08.773Z,22.04
2019-01-25T10:40:08.765Z,22.06
2019-01-25T10:41:08.765Z,22.02
2019-01-25T10:42:08.741Z,21.94
2019-01-25T10:43:08.728Z,22.06
2019-01-25T10:44:08.718Z,22.09
2019-01-25T10:45:08.708Z,22.09
2019-01-25T10:46:08.696Z,21.99
2019-01-25T10:47:08.702Z,22.06
2019-01-25T10:48:08.673Z,22.04
2019-01-25T10:49:08.662Z,22.04
2019-01-25T10:50:08.649Z,22.04
2019-01-25T10:51:08.637Z,21.95
2019-01-25T10:52:09.116Z,22.01
2019-01-25T10:53:08.615Z,21.99
2019-01-25T10:54:08.619Z,21.99
2019-01-25T10:55:08.593Z,21.98
2019-01-25T10:56:08.582Z,21.97
2019-01-25T10:57:08.578Z,22.02
2019-01-25T10:58:08.558Z,21.99
2019-01-25T10:59:08.549Z,22.02
2019-01-25T11:00:08.538Z,21.98
2019-01-25T11:01:08.528Z,22.07
2019-01-25T11:02:08.534Z,22.01
2019-01-25T11:03:08.505Z,21.90
2019-01-25T11:04:11.472Z,21.99
2019-01-25T11:05:08.482Z,21.95
2019-01-25T11:06:08.470Z,21.99
2019-01-25T11:07:08.459Z,22.04
2019-01-25T11:08:08.457Z,22.02
2019-01-25T11:09:08.438Z,21.94
2019-01-25T11:10:08.425Z,22.01
2019-01-25T11:11:08.415Z,22.06
2019-01-25T11:12:08.403Z,21.95
2019-01-25T11:13:08.400Z,21.91
2019-01-25T11:14:08.381Z,21.91
2019-01-25T11:15:08.370Z,21.97
2019-01-25T11:16:11.928Z,21.99
2019-01-25T11:17:08.351Z,21.99
2019-01-25T11:18:08.347Z,22.02
2019-01-25T11:19:08.325Z,21.94
2019-01-25T11:20:08.314Z,22.09
2019-01-25T11:21:08.304Z,21.97
2019-01-25T11:22:08.293Z,22.04
2019-01-25T11:23:08.291Z,21.97
2019-01-25T11:24:08.319Z,21.99
2019-01-25T11:25:08.267Z,21.98
2019-01-25T11:26:08.249Z,22.09
2019-01-25T11:27:08.236Z,22.09
2019-01-25T11:28:08.234Z,21.99
2019-01-25T11:29:08.214Z,22.04
2019-01-25T11:30:08.205Z,21.97
2019-01-25T11:31:08.193Z,22.12
2019-01-25T11:32:08.183Z,22.10
2019-01-25T11:33:08.184Z,22.06
2019-01-25T11:34:08.160Z,22.02
2019-01-25T11:35:08.148Z,22.07
2019-01-25T11:36:08.134Z,22.02
2019-01-25T11:37:08.124Z,22.07
2019-01-25T11:38:08.112Z,22.07
2019-01-25T11:39:08.109Z,22.07
2019-01-25T11:40:08.088Z,22.06
2019-01-25T11:41:08.078Z,22.02
2019-01-25T11:42:08.065Z,22.10
2019-01-25T11:43:09.115Z,22.07
2019-01-25T11:44:08.060Z,22.10
2019-01-25T11:45:08.038Z,22.07
2019-01-25T11:46:08.023Z,22.09
2019-01-25T11:47:08.016Z,22.10
2019-01-25T11:48:07.999Z,22.09
2019-01-25T11:49:07.988Z,22.17
2019-01-25T11:50:07.990Z,22.06
2019-01-25T11:51:07.964Z,22.14
2019-01-25T11:52:07.957Z,22.02
2019-01-25T11:53:07.947Z,22.02
2019-01-25T11:54:07.994Z,22.01
2019-01-25T11:55:07.933Z,21.99
2019-01-25T11:56:07.912Z,21.78
2019-01-25T11:57:07.898Z,21.88
2019-01-25T11:58:07.889Z,21.82
2019-01-25T11:59:07.878Z,21.95
2019-01-25T12:00:07.865Z,21.98
2019-01-25T12:01:07.862Z,22.01
2019-01-25T12:02:07.849Z,21.97
2019-01-25T12:03:07.832Z,22.06
2019-01-25T12:04:07.820Z,22.23
2019-01-25T12:05:07.809Z,22.17
2019-01-25T12:06:07.808Z,22.23
2019-01-25T12:07:07.790Z,22.20
2019-01-25T12:08:07.783Z,22.23
2019-01-25T12:09:07.764Z,22.16
2019-01-25T12:10:07.755Z,22.16
2019-01-25T12:11:07.753Z,22.16
2019-01-25T12:12:07.732Z,22.17
2019-01-25T12:13:07.721Z,22.20
2019-01-25T12:14:07.710Z,22.29
2019-01-25T12:15:07.703Z,22.29
2019-01-25T12:16:07.696Z,22.31
2019-01-25T12:17:07.676Z,22.27
2019-01-25T12:18:07.668Z,22.28
2019-01-25T12:19:07.657Z,22.32
2019-01-25T12:20:07.643Z,22.35
2019-01-25T12:21:07.646Z,22.32
2019-01-25T12:22:07.621Z,22.31
2019-01-25T12:23:07.612Z,22.34
2019-01-25T12:24:07.600Z,22.39
2019-01-25T12:25:07.591Z,22.27
2019-01-25T12:26:07.579Z,22.37
2019-01-25T12:27:07.574Z,22.20
2019-01-25T12:28:07.559Z,22.16
2019-01-25T12:29:07.548Z,22.13
2019-01-25T12:30:07.535Z,22.16
2019-01-25T12:31:07.523Z,22.23
2019-01-25T12:32:07.524Z,22.27
2019-01-25T12:33:07.503Z,22.32
2019-01-25T12:34:07.488Z,22.31
2019-01-25T12:35:07.587Z,22.23
2019-01-25T12:36:07.467Z,22.17
2019-01-25T12:37:07.455Z,22.12
2019-01-25T12:38:07.459Z,22.06
2019-01-25T12:39:07.432Z,22.13
2019-01-25T12:40:07.422Z,22.12
2019-01-25T12:41:07.410Z,22.13
2019-01-25T12:42:07.400Z,22.22
2019-01-25T12:43:07.388Z,22.20
2019-01-25T12:44:07.390Z,22.23
2019-01-25T12:45:07.366Z,22.23
2019-01-25T12:46:07.358Z,22.17
2019-01-25T12:47:07.346Z,22.13
2019-01-25T12:48:07.332Z,22.28
2019-01-25T12:49:07.330Z,22.29
2019-01-25T12:50:07.312Z,22.38
2019-01-25T12:51:07.299Z,22.35
2019-01-25T12:52:08.429Z,22.43